Daily Tabular Data
[Select Refresh to Update]


8/20/19
Time         Wind Dir   Wind Spd  Wind Gust     Hum In   Humidity    Temp In       Temp  Raw Barom   Tot Rain Wind Chill Heat Ix In Heat Index  Dew Point  DailyRain   HourRain   RainRate
                            mph        mph          %          %         F         F         in         in         F         F         F         F         in         in      in/hr
12:00am           247          0          0         58         92       75.3       64.6      29.07       0.07       64.6       76.9       70.5       62.2       0.00       0.00      0.000
12:30am           247          0          0         59         92       74.8       64.4      29.07       0.07       64.4       76.5       70.3       62.0       0.00       0.00      0.000
1:00am            175          0          1         58         90       74.6       63.9      29.07       0.07       63.9       76.2       69.5       60.9       0.00       0.00      0.000
1:30am            175          0          0         58         88       74.1       64.2      29.06       0.07       64.2       75.7       69.5       60.6       0.00       0.00      0.000
2:00am            175          0          0         58         89       73.9       63.5      29.06       0.07       63.5       75.5       69.0       60.2       0.00       0.00      0.000
2:30am            176          0          1         58         88       73.4       63.5      29.06       0.07       63.5       75.0       68.8       59.9       0.00       0.00      0.000
3:00am             80          2          2         58         88       73.2       63.3      29.06       0.07       63.3       74.8       68.6       59.7       0.00       0.00      0.000
3:30am             61          0          2         58         88       72.9       62.6      29.07       0.07       62.6       74.5       67.9       59.0       0.00       0.00      0.000
4:00am             62          0          0         57         95       72.9       66.6      29.07       0.07       66.6       74.4       73.0       65.1       0.00       0.00      0.000
4:30am             62          0          0         57         84       73.4       65.0      29.08       0.07       65.0       74.9       69.8       60.1       0.00       0.00      0.000
5:00am             62          0          0         57         89       73.4       62.3      29.08       0.07       62.3       74.9       67.8       59.0       0.00       0.00      0.000
5:30am             63          0          0         56         92       73.7       61.7      29.09       0.07       61.7       75.1       67.6       59.4       0.00       0.00      0.000
6:00am             63          0          0         56         92       73.8       61.2      29.09       0.07       61.2       75.2       67.1       58.9       0.00       0.00      0.000
6:30am             63          0          0         56         93       73.8       61.6      29.10       0.07       61.6       75.2       67.7       59.6       0.00       0.00      0.000
7:00am             63          0          0         56         93       73.7       62.3      29.10       0.07       62.3       75.1       68.4       60.3       0.00       0.00      0.000
7:30am            211          0          2         56         93       73.7       64.3      29.10       0.07       64.3       75.1       70.4       62.2       0.00       0.00      0.000
8:00am            246          0          1         56         90       73.7       65.6      29.10       0.07       65.6       75.1       71.2       62.6       0.00       0.00      0.000
8:30am            240          0          0         56         86       73.9       67.4      29.10       0.07       67.4       75.3       72.5       63.1       0.00       0.00      0.000
9:00am            244          0          0         55         85       74.1       69.0      29.10       0.07       69.0       75.4       73.9       64.3       0.00       0.00      0.000
9:30am            232          0          0         55         81       74.4       70.9      29.10       0.07       70.9       75.7       75.3       64.8       0.00       0.00      0.000
10:00am           217          0          0         55         72       74.6       74.4      29.10       0.07       74.4       75.9       77.6       64.8       0.00       0.00      0.000
10:30am           229          0          4         55         63       74.8       78.2      29.10       0.07       78.2       76.1       80.3       64.6       0.00       0.00      0.000
11:00am           225          1          3         55         59       75.1       81.4      29.10       0.07       81.4       76.4       83.4       65.7       0.00       0.00      0.000
11:30am           226          0          7         55         55       75.4       80.6      29.09       0.07       80.6       76.7       81.9       63.0       0.00       0.00      0.000
12:00pm           180          4          7         54         54       75.7       82.3      29.09       0.07       82.3       76.9       83.8       64.0       0.00       0.00      0.000
12:30pm           252          2         11         54         55       76.1       81.7      29.08       0.07       81.7       77.3       83.2       64.0       0.00       0.00      0.000
1:00pm            271          3         12         54         53       76.5       81.9      29.08       0.07       81.9       77.7       83.1       63.1       0.00       0.00      0.000
1:30pm            278          8         12         54         52       76.8       82.5      29.06       0.07       82.5       78.0       83.7       63.1       0.00       0.00      0.000
2:00pm            236          2         12         54         51       77.1       83.3      29.06       0.07       83.3       78.3       84.4       63.3       0.00       0.00      0.000
2:30pm            252          4         12         54         49       77.5       83.5      29.05       0.07       83.5       78.7       84.3       62.3       0.00       0.00      0.000
3:00pm            240          5         10         55         49       77.8       84.6      29.04       0.07       84.6       79.1       85.7       63.4       0.00       0.00      0.000
3:30pm            266          6         14         55         50       78.2       83.7      29.03       0.07       83.7       79.5       84.7       63.1       0.00       0.00      0.000
4:00pm            236          3         11         55         47       78.5       85.0      29.02       0.07       85.0       79.8       85.7       62.5       0.00       0.00      0.000
4:30pm            242          5          9         55         48       78.9       85.5      29.02       0.07       85.5       80.2       86.6       63.6       0.00       0.00      0.000
5:00pm            243          2         10         55         50       79.2       84.5      29.02       0.07       84.5       80.5       85.8       63.8       0.00       0.00      0.000
5:30pm            250          3         11         55         52       79.4       83.6      29.02       0.07       83.6       80.7       85.0       64.1       0.00       0.00      0.000
6:00pm            236          5          9         56         53       79.8       82.3      29.01       0.07       82.3       81.2       83.6       63.5       0.00       0.00      0.000
6:30pm            236          5         10         56         58       80.0       79.9      29.01       0.07       79.9       81.4       81.5       63.8       0.00       0.00      0.000
7:00pm            239          0          9         56         61       80.1       78.2      29.01       0.07       78.2       81.5       80.1       63.7       0.00       0.00      0.000
7:30pm            254          0          8         56         65       80.2       75.6      29.02       0.07       75.6       81.6       78.0       63.0       0.00       0.00      0.000
8:00pm            230          0          3         56         68       80.2       73.6      29.02       0.07       73.6       81.6       76.3       62.4       0.00       0.00      0.000
8:30pm            212          0          1         56         73       80.1       72.4      29.02       0.07       72.4       81.5       75.7       63.3       0.00       0.00      0.000
9:00pm            236          0          0         56         75       80.0       71.0      29.02       0.07       71.0       81.4       74.6       62.7       0.00       0.00      0.000
9:30pm            230          0          0         57         80       79.9       70.2      29.03       0.07       70.2       81.4       74.4       63.7       0.00       0.00      0.000
10:00pm           230          0          0         57         79       79.7       69.2      29.03       0.07       69.2       81.2       73.3       62.4       0.00       0.00      0.000
10:30pm           250          0          1         57         79       79.6       68.8      29.03       0.07       68.8       81.1       72.9       62.0       0.00       0.00      0.000
11:00pm           250          0          0         57         80       79.4       67.9      29.03       0.07       67.9       80.9       72.1       61.5       0.00       0.00      0.000
11:30pm           213          0          0         57         81       79.2       67.4      29.03       0.07       67.4       80.7       71.8       61.4       0.00       0.00      0.000